createdAt,value
2019-04-10T00:01:50.954Z,4.98
2019-04-10T00:04:18.980Z,5.15
2019-04-10T00:06:46.672Z,5.06
2019-04-10T00:09:14.777Z,5.20
2019-04-10T00:11:43.199Z,5.27
2019-04-10T00:14:12.273Z,5.26
2019-04-10T00:16:40.477Z,5.18
2019-04-10T00:19:08.749Z,5.09
2019-04-10T00:21:37.416Z,4.87
2019-04-10T00:24:06.038Z,4.85
2019-04-10T00:26:34.111Z,4.82
2019-04-10T00:29:01.903Z,4.87
2019-04-10T00:31:29.778Z,5.09
2019-04-10T00:33:57.494Z,5.21
2019-04-10T00:36:25.224Z,4.75
2019-04-10T00:38:53.893Z,4.73
2019-04-10T00:41:21.846Z,4.95
2019-04-10T00:43:49.563Z,5.17
2019-04-10T00:46:17.851Z,4.88
2019-04-10T00:48:45.741Z,5.08
2019-04-10T00:51:13.395Z,5.15
2019-04-10T00:53:41.263Z,4.83
2019-04-10T00:56:09.147Z,4.86
2019-04-10T00:58:37.547Z,4.75
2019-04-10T01:01:05.643Z,4.71
2019-04-10T01:03:48.497Z,4.49
2019-04-10T01:06:16.116Z,4.67
2019-04-10T01:08:44.722Z,4.59
2019-04-10T01:11:12.838Z,4.78
2019-04-10T01:13:41.123Z,4.71
2019-04-10T01:16:09.230Z,4.83
2019-04-10T01:18:37.408Z,4.87
2019-04-10T01:21:06.178Z,5.03
2019-04-10T01:23:35.043Z,5.03
2019-04-10T01:26:03.094Z,4.94
2019-04-10T01:28:31.108Z,4.83
2019-04-10T01:30:59.091Z,4.96
2019-04-10T01:33:26.945Z,5.07
2019-04-10T01:35:54.600Z,4.61
2019-04-10T01:38:22.309Z,4.60
2019-04-10T01:40:51.081Z,4.39
2019-04-10T01:43:19.983Z,4.16
2019-04-10T01:45:47.803Z,4.21
2019-04-10T01:48:15.792Z,4.20
2019-04-10T01:50:44.457Z,4.49
2019-04-10T01:53:13.325Z,4.26
2019-04-10T01:55:41.180Z,4.23
2019-04-10T01:58:13.286Z,4.42
2019-04-10T02:00:43.861Z,4.53
2019-04-10T02:03:11.880Z,4.36
2019-04-10T02:05:40.779Z,4.47
2019-04-10T02:08:12.758Z,4.39
2019-04-10T02:10:38.391Z,4.45
2019-04-10T02:13:07.331Z,4.36
2019-04-10T02:15:35.073Z,4.24
2019-04-10T02:18:03.280Z,4.28
2019-04-10T02:20:31.336Z,4.39
2019-04-10T02:22:59.143Z,4.30
2019-04-10T02:25:26.789Z,4.18
2019-04-10T02:27:54.523Z,4.09
2019-04-10T02:30:23.887Z,4.16
2019-04-10T02:32:52.851Z,4.15
2019-04-10T02:35:23.695Z,4.00
2019-04-10T02:37:54.684Z,4.13
2019-04-10T02:40:21.276Z,4.33
2019-04-10T02:42:49.407Z,4.34
2019-04-10T02:45:18.930Z,4.48
2019-04-10T02:47:47.448Z,4.67
2019-04-10T02:50:16.599Z,4.67
2019-04-10T02:52:45.920Z,4.81
2019-04-10T02:55:14.427Z,4.76
2019-04-10T02:57:43.601Z,4.78
2019-04-10T03:00:13.943Z,4.82
2019-04-10T03:02:41.580Z,4.86
2019-04-10T03:05:09.876Z,4.79
2019-04-10T03:07:37.621Z,4.78
2019-04-10T03:10:16.372Z,4.57
2019-04-10T03:12:36.229Z,4.57
2019-04-10T03:15:05.711Z,4.58
2019-04-10T03:17:34.749Z,4.66
2019-04-10T03:20:02.558Z,4.79
2019-04-10T03:22:30.216Z,4.87
2019-04-10T03:24:58.375Z,4.86
2019-04-10T03:27:26.120Z,4.73
2019-04-10T03:29:53.950Z,4.55
2019-04-10T03:32:31.095Z,4.61
2019-04-10T03:35:00.569Z,4.68
2019-04-10T03:37:28.611Z,4.31
2019-04-10T03:39:57.359Z,4.36
2019-04-10T03:42:25.459Z,4.18
2019-04-10T03:44:53.214Z,4.29
2019-04-10T03:47:20.933Z,4.10
2019-04-10T03:49:49.655Z,4.03
2019-04-10T03:52:17.532Z,4.13
2019-04-10T03:54:46.071Z,4.05
2019-04-10T03:57:14.278Z,4.00
2019-04-10T03:59:42.121Z,3.95
2019-04-10T04:02:09.848Z,3.72
2019-04-10T04:04:37.701Z,3.66
2019-04-10T04:07:05.421Z,3.68
2019-04-10T04:09:33.059Z,3.71
2019-04-10T04:12:00.796Z,3.71
2019-04-10T04:14:28.516Z,3.71
2019-04-10T04:16:56.257Z,3.72
2019-04-10T04:19:24.126Z,3.83
2019-04-10T04:21:52.322Z,3.80
2019-04-10T04:24:22.496Z,3.77
2019-04-10T04:26:50.809Z,3.73
2019-04-10T04:29:18.668Z,3.80
2019-04-10T04:31:46.503Z,3.81
2019-04-10T04:34:14.278Z,3.81
2019-04-10T04:36:42.956Z,3.54
2019-04-10T04:39:21.017Z,3.52
2019-04-10T04:41:40.261Z,3.43
2019-04-10T04:44:08.105Z,3.54
2019-04-10T04:46:36.503Z,3.61
2019-04-10T04:49:04.251Z,3.70
2019-04-10T04:51:33.011Z,3.53
2019-04-10T04:54:01.061Z,3.67
2019-04-10T04:56:28.777Z,3.73
2019-04-10T04:58:56.422Z,3.61
2019-04-10T05:01:24.068Z,3.58
2019-04-10T05:03:52.622Z,3.49
2019-04-10T05:06:20.481Z,3.65
2019-04-10T05:08:48.573Z,3.55
2019-04-10T05:11:16.376Z,3.67
2019-04-10T05:13:44.285Z,3.95
2019-04-10T05:16:11.946Z,3.89
2019-04-10T05:18:39.587Z,4.05
2019-04-10T05:21:07.231Z,4.18
2019-04-10T05:23:35.128Z,3.90
2019-04-10T05:26:02.820Z,4.11
2019-04-10T05:28:31.076Z,4.29
2019-04-10T05:30:58.981Z,3.94
2019-04-10T05:33:26.856Z,3.87
2019-04-10T05:35:54.973Z,4.16
2019-04-10T05:38:22.866Z,3.93
2019-04-10T05:40:50.761Z,3.90
2019-04-10T05:43:18.514Z,3.89
2019-04-10T05:45:46.474Z,3.95
2019-04-10T05:48:15.270Z,4.15
2019-04-10T05:50:53.066Z,4.12
2019-04-10T05:53:12.404Z,4.44
2019-04-10T05:55:40.699Z,4.53
2019-04-10T05:58:09.213Z,4.71
2019-04-10T06:00:37.044Z,4.54
2019-04-10T06:03:04.709Z,4.37
2019-04-10T06:05:32.346Z,4.70
2019-04-10T06:08:00.005Z,5.20
2019-04-10T06:10:27.674Z,5.38
2019-04-10T06:12:55.384Z,5.49
2019-04-10T06:15:23.268Z,5.41
2019-04-10T06:17:51.129Z,5.59
2019-04-10T06:20:18.804Z,5.68
2019-04-10T06:22:47.350Z,5.83
2019-04-10T06:25:16.097Z,6.06
2019-04-10T06:27:44.985Z,5.54
2019-04-10T06:30:12.858Z,5.65
2019-04-10T06:32:40.517Z,5.74
2019-04-10T06:35:08.355Z,6.05
2019-04-10T06:37:36.166Z,6.42
2019-04-10T06:40:13.172Z,6.75
2019-04-10T06:42:44.829Z,7.16
2019-04-10T06:45:02.839Z,7.34
2019-04-10T06:47:30.988Z,7.57
2019-04-10T06:49:59.257Z,7.62
2019-04-10T06:52:27.044Z,7.59
2019-04-10T06:54:55.421Z,7.86
2019-04-10T06:57:23.200Z,7.90
2019-04-10T06:59:52.340Z,8.15
2019-04-10T07:02:27.316Z,7.82
2019-04-10T07:04:54.181Z,7.62
2019-04-10T07:07:21.827Z,7.92
2019-04-10T07:09:49.585Z,7.70
2019-04-10T07:12:18.459Z,8.16
2019-04-10T07:14:49.334Z,8.25
2019-04-10T07:17:16.018Z,8.63
2019-04-10T07:19:45.554Z,8.20
2019-04-10T07:22:14.707Z,7.79
2019-04-10T07:24:43.981Z,8.32
2019-04-10T07:27:11.992Z,8.47
2019-04-10T07:29:40.419Z,8.38
2019-04-10T07:32:10.630Z,8.66
2019-04-10T07:34:37.510Z,8.72
2019-04-10T07:37:05.757Z,9.01
2019-04-10T07:39:34.144Z,8.18
2019-04-10T07:42:02.804Z,7.82
2019-04-10T07:44:30.742Z,8.43
2019-04-10T07:47:00.689Z,8.68
2019-04-10T07:49:30.997Z,8.35
2019-04-10T07:51:58.620Z,8.94
2019-04-10T07:54:26.773Z,8.95
2019-04-10T07:56:55.684Z,8.70
2019-04-10T07:59:23.609Z,9.13
2019-04-10T08:01:51.737Z,9.13
2019-04-10T08:04:20.535Z,9.02
2019-04-10T08:06:48.323Z,8.98
2019-04-10T08:09:16.727Z,8.48
2019-04-10T08:11:44.795Z,8.97
2019-04-10T08:14:12.776Z,9.07
2019-04-10T08:16:41.419Z,8.81
2019-04-10T08:19:10.330Z,9.11
2019-04-10T08:21:38.182Z,8.98
2019-04-10T08:24:05.903Z,9.12
2019-04-10T08:26:33.573Z,9.24
2019-04-10T08:29:01.620Z,9.08
2019-04-10T08:31:29.447Z,9.47
2019-04-10T08:33:57.124Z,9.31
2019-04-10T08:36:25.589Z,9.67
2019-04-10T08:38:53.404Z,9.72
2019-04-10T08:41:21.309Z,10.07
2019-04-10T08:43:50.179Z,9.84
2019-04-10T08:46:18.039Z,9.56
2019-04-10T08:48:45.912Z,9.89
2019-04-10T08:51:13.565Z,9.44
2019-04-10T08:53:41.205Z,9.62
2019-04-10T08:56:08.867Z,10.07
2019-04-10T08:58:36.534Z,10.54
2019-04-10T09:01:05.001Z,10.56
2019-04-10T09:03:33.031Z,10.29
2019-04-10T09:06:00.989Z,9.98
2019-04-10T09:08:28.890Z,10.44
2019-04-10T09:10:56.700Z,10.61
2019-04-10T09:13:24.408Z,10.55
2019-04-10T09:15:52.121Z,10.03
2019-04-10T09:18:20.977Z,10.21
2019-04-10T09:20:49.092Z,10.58
2019-04-10T09:23:25.103Z,10.31
2019-04-10T09:25:46.997Z,9.93
2019-04-10T09:28:16.006Z,10.18
2019-04-10T09:30:44.871Z,10.06
2019-04-10T09:33:19.741Z,10.41
2019-04-10T09:35:41.992Z,10.14
2019-04-10T09:38:10.590Z,9.92
2019-04-10T09:40:38.569Z,10.46
2019-04-10T09:43:07.340Z,10.31
2019-04-10T09:45:35.144Z,10.73
2019-04-10T09:48:02.793Z,10.65
2019-04-10T09:50:31.120Z,10.61
2019-04-10T09:52:59.991Z,10.79
2019-04-10T09:55:27.859Z,10.81
2019-04-10T09:57:55.546Z,10.79
2019-04-10T10:00:24.428Z,10.40
2019-04-10T10:02:52.968Z,10.56
2019-04-10T10:05:20.762Z,10.72
2019-04-10T10:07:48.671Z,10.50
2019-04-10T10:10:17.199Z,10.28
2019-04-10T10:12:45.048Z,10.40
2019-04-10T10:15:13.419Z,10.49
2019-04-10T10:17:41.294Z,10.55
2019-04-10T10:20:09.068Z,10.57
2019-04-10T10:22:37.042Z,10.17
2019-04-10T10:25:04.913Z,10.41
2019-04-10T10:27:32.886Z,10.66
2019-04-10T10:30:00.591Z,11.02
2019-04-10T10:32:28.922Z,11.01
2019-04-10T10:34:56.812Z,10.89
2019-04-10T10:37:24.468Z,10.90
2019-04-10T10:39:52.827Z,11.05
2019-04-10T10:42:21.319Z,11.08
2019-04-10T10:44:50.040Z,10.94
2019-04-10T10:47:17.946Z,11.19
2019-04-10T10:49:45.731Z,11.26
2019-04-10T10:52:13.384Z,11.32
2019-04-10T10:54:41.121Z,11.35
2019-04-10T10:57:09.041Z,11.55
2019-04-10T10:59:37.646Z,11.41
2019-04-10T11:02:06.425Z,11.00
2019-04-10T11:04:34.347Z,11.26
2019-04-10T11:07:02.672Z,11.01
2019-04-10T11:09:30.435Z,11.15
2019-04-10T11:11:58.084Z,10.85
2019-04-10T11:14:25.731Z,11.22
2019-04-10T11:16:53.682Z,11.16
2019-04-10T11:19:21.540Z,10.70
2019-04-10T11:21:49.645Z,11.03
2019-04-10T11:24:17.419Z,10.53
2019-04-10T11:26:46.252Z,10.65
2019-04-10T11:29:14.421Z,10.69
2019-04-10T11:31:42.250Z,10.75
2019-04-10T11:34:11.182Z,10.71
2019-04-10T11:36:40.057Z,10.99
2019-04-10T11:41:38.310Z,11.13
2019-04-10T11:44:08.145Z,11.14
2019-04-10T11:46:38.714Z,11.14
2019-04-10T11:49:07.304Z,11.12
2019-04-10T11:51:36.731Z,11.25
2019-04-10T11:54:07.709Z,11.04
2019-04-10T11:56:34.298Z,10.86
2019-04-10T11:59:05.792Z,10.88
2019-04-10T12:01:34.235Z,10.97
2019-04-10T12:04:02.837Z,10.54
2019-04-10T12:06:33.240Z,10.48
2019-04-10T12:09:19.321Z,10.91
2019-04-10T12:11:30.921Z,10.93
2019-04-10T12:13:58.938Z,11.07
2019-04-10T12:16:27.268Z,11.26
2019-04-10T12:18:55.949Z,11.54
2019-04-10T12:21:24.172Z,11.15
2019-04-10T12:23:53.411Z,11.42
2019-04-10T12:26:21.201Z,11.34
2019-04-10T12:28:49.904Z,11.41
2019-04-10T12:31:17.780Z,11.01
2019-04-10T12:33:46.499Z,11.21
2019-04-10T12:36:14.296Z,11.25
2019-04-10T12:38:41.960Z,11.36
2019-04-10T12:41:09.611Z,10.99
2019-04-10T12:43:37.276Z,11.13
2019-04-10T12:46:04.940Z,10.86
2019-04-10T12:48:32.610Z,10.80
2019-04-10T12:51:01.175Z,10.95
2019-04-10T12:53:29.599Z,11.09
2019-04-10T12:55:57.797Z,11.11
2019-04-10T12:58:26.637Z,11.12
2019-04-10T13:00:54.452Z,10.96
2019-04-10T13:03:23.085Z,10.94
2019-04-10T13:05:51.550Z,10.93
2019-04-10T13:08:22.859Z,11.15
2019-04-10T13:10:48.766Z,11.02
2019-04-10T13:13:16.430Z,11.29
2019-04-10T13:15:44.079Z,11.27
2019-04-10T13:18:12.106Z,11.37
2019-04-10T13:20:39.979Z,11.45
2019-04-10T13:23:08.668Z,11.29
2019-04-10T13:25:36.624Z,11.13
2019-04-10T13:28:05.499Z,10.83
2019-04-10T13:30:44.141Z,11.10
2019-04-10T13:33:02.671Z,11.25
2019-04-10T13:35:30.343Z,11.53
2019-04-10T13:37:58.931Z,11.33
2019-04-10T13:40:27.828Z,11.35
2019-04-10T13:42:55.807Z,11.65
2019-04-10T13:45:23.621Z,11.41
2019-04-10T13:47:51.394Z,11.41
2019-04-10T13:50:19.037Z,11.31
2019-04-10T13:52:51.059Z,11.11
2019-04-10T13:55:19.006Z,10.89
2019-04-10T13:57:46.847Z,11.06
2019-04-10T14:00:26.028Z,10.95
2019-04-10T14:02:54.100Z,10.98
2019-04-10T14:05:22.033Z,10.72
2019-04-10T14:07:49.755Z,10.61
2019-04-10T14:10:18.696Z,10.95
2019-04-10T14:12:47.190Z,11.03
2019-04-10T14:15:16.016Z,11.01
2019-04-10T14:17:43.940Z,11.18
2019-04-10T14:20:11.664Z,11.09
2019-04-10T14:22:46.133Z,10.95
2019-04-10T14:25:25.450Z,10.95
2019-04-10T14:27:54.329Z,10.75
2019-04-10T14:30:31.911Z,10.95
2019-04-10T14:33:00.829Z,11.06
2019-04-10T14:35:29.489Z,11.28
2019-04-10T14:37:57.347Z,10.98
2019-04-10T14:40:26.166Z,11.18
2019-04-10T14:42:53.952Z,10.94
2019-04-10T14:45:21.606Z,10.75
2019-04-10T14:47:49.810Z,11.16
2019-04-10T14:50:17.844Z,11.06
2019-04-10T14:52:45.543Z,11.21
2019-04-10T14:55:14.459Z,11.19
2019-04-10T14:57:43.234Z,10.89
2019-04-10T15:00:18.263Z,10.84
2019-04-10T15:02:46.530Z,10.89
2019-04-10T15:05:15.313Z,10.62
2019-04-10T15:07:43.197Z,10.61
2019-04-10T15:10:10.947Z,10.77
2019-04-10T15:12:39.526Z,10.72
2019-04-10T15:15:07.988Z,10.80
2019-04-10T15:17:35.691Z,11.00
2019-04-10T15:20:03.429Z,11.00
2019-04-10T15:22:31.750Z,11.18
2019-04-10T15:24:59.520Z,11.12
2019-04-10T15:27:27.198Z,11.10
2019-04-10T15:29:54.903Z,10.80
2019-04-10T15:32:22.607Z,11.03
2019-04-10T15:34:51.246Z,11.33
2019-04-10T15:37:19.236Z,11.63
2019-04-10T15:39:46.901Z,11.64
2019-04-10T15:42:14.560Z,11.78
2019-04-10T15:44:42.796Z,11.23
2019-04-10T15:47:18.395Z,10.91
2019-04-10T15:49:40.862Z,10.85
2019-04-10T15:52:10.018Z,10.95
2019-04-10T15:54:38.181Z,10.83
2019-04-10T15:57:06.842Z,10.88
2019-04-10T15:59:34.703Z,10.79
2019-04-10T16:02:03.531Z,10.65
2019-04-10T16:04:31.683Z,10.75
2019-04-10T16:07:00.087Z,11.07
2019-04-10T16:09:29.167Z,11.13
2019-04-10T16:12:08.145Z,11.09
2019-04-10T16:14:35.978Z,11.14
2019-04-10T16:17:17.149Z,11.06
2019-04-10T16:19:49.490Z,10.83
2019-04-10T16:22:27.640Z,10.59
2019-04-10T16:24:57.567Z,10.45
2019-04-10T16:27:25.355Z,10.50
2019-04-10T16:29:53.167Z,10.54
2019-04-10T16:32:21.335Z,10.53
2019-04-10T16:34:49.150Z,10.43
2019-04-10T16:37:16.924Z,10.49
2019-04-10T16:39:57.449Z,10.47
2019-04-10T16:42:14.696Z,10.33
2019-04-10T16:44:43.745Z,10.18
2019-04-10T16:47:12.103Z,10.18
2019-04-10T16:49:39.884Z,10.20
2019-04-10T16:52:07.540Z,10.20
2019-04-10T16:54:35.461Z,10.18
2019-04-10T16:57:03.242Z,10.10
2019-04-10T16:59:31.985Z,10.10
2019-04-10T17:02:00.806Z,10.06
2019-04-10T17:04:29.828Z,10.03
2019-04-10T17:06:58.750Z,10.00
2019-04-10T17:09:27.326Z,9.90
2019-04-10T17:11:56.358Z,10.02
2019-04-10T17:14:24.307Z,9.82
2019-04-10T17:16:51.957Z,9.64
2019-04-10T17:19:19.607Z,9.72
2019-04-10T17:21:47.260Z,9.57
2019-04-10T17:24:15.350Z,9.52
2019-04-10T17:26:43.434Z,9.53
2019-04-10T17:29:12.481Z,9.43
2019-04-10T17:31:40.480Z,9.47
2019-04-10T17:34:08.343Z,9.37
2019-04-10T17:36:36.868Z,9.33
2019-04-10T17:39:05.542Z,9.29
2019-04-10T17:41:33.424Z,9.25
2019-04-10T17:44:02.571Z,9.21
2019-04-10T17:46:31.250Z,9.25
2019-04-10T17:48:59.053Z,9.21
2019-04-10T17:51:28.169Z,9.18
2019-04-10T17:53:56.126Z,9.10
2019-04-10T17:56:24.255Z,9.09
2019-04-10T17:58:52.092Z,9.02
2019-04-10T18:01:21.135Z,9.00
2019-04-10T18:03:52.184Z,8.88
2019-04-10T18:06:19.307Z,9.02
2019-04-10T18:08:47.275Z,8.77
2019-04-10T18:11:16.132Z,8.75
2019-04-10T18:13:44.935Z,8.77
2019-04-10T18:16:12.747Z,8.59
2019-04-10T18:18:40.414Z,8.53
2019-04-10T18:21:08.607Z,8.50
2019-04-10T18:23:37.475Z,8.40
2019-04-10T18:26:06.620Z,8.47
2019-04-10T18:28:35.427Z,8.50
2019-04-10T18:31:04.940Z,8.32
2019-04-10T18:33:32.777Z,8.26
2019-04-10T18:36:00.425Z,8.24
2019-04-10T18:38:28.111Z,8.14
2019-04-10T18:41:02.038Z,7.96
2019-04-10T18:43:25.930Z,8.11
2019-04-10T18:46:05.027Z,8.11
2019-04-10T18:48:24.956Z,7.98
2019-04-10T18:50:53.770Z,7.90
2019-04-10T18:53:21.611Z,7.86
2019-04-10T18:55:49.293Z,7.86
2019-04-10T18:58:19.940Z,7.81
2019-04-10T19:01:08.273Z,7.87
2019-04-10T19:03:51.390Z,7.73
2019-04-10T19:06:21.054Z,7.68
2019-04-10T19:09:01.748Z,7.52
2019-04-10T19:11:23.129Z,7.58
2019-04-10T19:13:47.479Z,7.45
2019-04-10T19:16:17.365Z,7.41
2019-04-10T19:18:46.130Z,7.34
2019-04-10T19:21:13.944Z,7.32
2019-04-10T19:23:41.780Z,7.23
2019-04-10T19:26:11.349Z,7.22
2019-04-10T19:28:41.842Z,7.19
2019-04-10T19:31:18.145Z,7.08
2019-04-10T19:33:43.556Z,7.13
2019-04-10T19:36:11.986Z,6.97
2019-04-10T19:38:39.768Z,7.01
2019-04-10T19:41:20.005Z,7.04
2019-04-10T19:43:37.903Z,6.97
2019-04-10T19:46:06.467Z,6.92
2019-04-10T19:48:35.154Z,6.84
2019-04-10T19:51:02.968Z,6.68
2019-04-10T19:53:30.627Z,6.66
2019-04-10T19:55:58.495Z,6.51
2019-04-10T19:58:26.156Z,6.35
2019-04-10T20:00:54.886Z,6.48
2019-04-10T20:03:23.752Z,6.59
2019-04-10T20:05:51.532Z,6.64
2019-04-10T20:08:19.659Z,6.50
2019-04-10T20:10:47.717Z,6.43
2019-04-10T20:13:16.580Z,6.59
2019-04-10T20:15:44.804Z,6.42
2019-04-10T20:18:12.716Z,6.31
2019-04-10T20:20:41.544Z,6.18
2019-04-10T20:23:09.758Z,6.19
2019-04-10T20:25:38.717Z,6.22
2019-04-10T20:28:06.941Z,6.16
2019-04-10T20:30:34.953Z,6.06
2019-04-10T20:33:02.929Z,5.99
2019-04-10T20:35:31.791Z,6.05
2019-04-10T20:38:00.923Z,6.02
2019-04-10T20:40:29.694Z,5.97
2019-04-10T20:42:58.371Z,5.86
2019-04-10T20:45:26.555Z,5.78
2019-04-10T20:47:54.203Z,5.70
2019-04-10T20:50:21.845Z,5.65
2019-04-10T20:52:49.543Z,5.77
2019-04-10T20:55:17.508Z,5.80
2019-04-10T20:57:45.826Z,5.66
2019-04-10T21:00:20.368Z,5.66
2019-04-10T21:02:48.862Z,5.49
2019-04-10T21:05:17.917Z,5.54
2019-04-10T21:07:45.977Z,5.54
2019-04-10T21:10:14.942Z,5.46
2019-04-10T21:12:43.015Z,5.45
2019-04-10T21:15:11.684Z,5.40
2019-04-10T21:17:39.680Z,5.47
2019-04-10T21:20:07.933Z,5.43
2019-04-10T21:22:36.367Z,5.41
2019-04-10T21:25:04.436Z,5.41
2019-04-10T21:27:32.097Z,5.39
2019-04-10T21:30:05.800Z,5.39
2019-04-10T21:32:40.846Z,5.24
2019-04-10T21:35:11.690Z,5.27
2019-04-10T21:37:40.295Z,5.14
2019-04-10T21:40:08.233Z,5.15
2019-04-10T21:42:36.988Z,5.15
2019-04-10T21:45:05.261Z,5.07
2019-04-10T21:47:33.439Z,5.09
2019-04-10T21:50:02.510Z,5.12
2019-04-10T21:52:30.751Z,4.94
2019-04-10T21:55:00.360Z,4.94
2019-04-10T21:57:27.951Z,4.97
2019-04-10T21:59:56.044Z,4.94
2019-04-10T22:02:23.912Z,4.93
2019-04-10T22:04:51.897Z,4.85
2019-04-10T22:07:40.509Z,4.81
2019-04-10T22:10:20.099Z,4.81
2019-04-10T22:12:51.802Z,4.74
2019-04-10T22:15:28.887Z,4.77
2019-04-10T22:17:56.845Z,4.72
2019-04-10T22:20:25.453Z,4.66
2019-04-10T22:22:53.497Z,4.64
2019-04-10T22:25:21.589Z,4.73
2019-04-10T22:27:49.964Z,4.69
2019-04-10T22:30:18.949Z,4.58
2019-04-10T22:32:47.159Z,4.56
2019-04-10T22:35:15.261Z,4.42
2019-04-10T22:37:44.068Z,4.56
2019-04-10T22:40:12.943Z,4.46
2019-04-10T22:42:46.100Z,4.45
2019-04-10T22:45:10.351Z,4.28
2019-04-10T22:47:39.234Z,4.34
2019-04-10T22:50:06.933Z,4.23
2019-04-10T22:52:34.601Z,4.24
2019-04-10T22:55:03.577Z,3.87
2019-04-10T22:57:31.440Z,3.95
2019-04-10T22:59:59.520Z,3.81
2019-04-10T23:02:27.828Z,3.67
2019-04-10T23:04:55.691Z,3.85
2019-04-10T23:07:24.079Z,3.94
2019-04-10T23:09:52.761Z,4.01
2019-04-10T23:12:20.527Z,3.94
2019-04-10T23:14:49.031Z,3.86
2019-04-10T23:17:16.897Z,3.98
2019-04-10T23:19:44.635Z,3.60
2019-04-10T23:22:13.346Z,3.42
2019-04-10T23:24:41.384Z,3.32
2019-04-10T23:27:09.399Z,3.27
2019-04-10T23:29:38.189Z,3.44
2019-04-10T23:32:05.962Z,3.22
2019-04-10T23:34:33.669Z,3.09
2019-04-10T23:37:02.443Z,3.24
2019-04-10T23:39:30.407Z,3.59
2019-04-10T23:41:59.043Z,3.14
2019-04-10T23:44:27.045Z,3.35
2019-04-10T23:46:55.719Z,3.36
2019-04-10T23:49:23.528Z,3.15
2019-04-10T23:51:51.620Z,3.44
2019-04-10T23:54:19.445Z,3.72
2019-04-10T23:56:49.356Z,3.68
2019-04-10T23:59:16.439Z,3.42
